createdAt,value
2023-01-07T00:00:22.357Z,12.250
2023-01-07T00:01:31.470Z,11.100
2023-01-07T00:02:26.142Z,11.500
2023-01-07T00:03:21.482Z,12.300
2023-01-07T00:04:31.033Z,12.150
2023-01-07T00:05:28.072Z,11.300
2023-01-07T00:06:29.934Z,10.800
2023-01-07T00:07:28.105Z,9.800
2023-01-07T00:08:44.721Z,11.550
2023-01-07T00:09:25.781Z,12.600
2023-01-07T00:10:20.361Z,11.000
2023-01-07T00:11:21.672Z,9.950
2023-01-07T00:12:31.344Z,9.050
2023-01-07T00:13:23.184Z,11.150
2023-01-07T00:14:25.223Z,9.350
2023-01-07T00:15:29.469Z,9.200
2023-01-07T00:16:24.818Z,8.350
2023-01-07T00:17:20.980Z,9.300
2023-01-07T00:18:25.238Z,9.000
2023-01-07T00:19:25.724Z,8.100
2023-01-07T00:20:24.404Z,8.500
2023-01-07T00:21:32.197Z,7.700
2023-01-07T00:22:20.861Z,8.450
2023-01-07T00:23:24.177Z,7.600
2023-01-07T00:24:19.518Z,7.650
2023-01-07T00:25:27.216Z,8.200
2023-01-07T00:26:22.619Z,7.950
2023-01-07T00:27:23.759Z,7.400
2023-01-07T00:28:21.616Z,7.400
2023-01-07T00:29:21.540Z,7.800
2023-01-07T00:30:23.626Z,7.350
2023-01-07T00:31:19.942Z,6.500
2023-01-07T00:32:29.961Z,6.850
2023-01-07T00:33:27.371Z,6.450
2023-01-07T00:34:22.036Z,7.300
2023-01-07T00:35:26.324Z,7.800
2023-01-07T00:36:25.257Z,7.050
2023-01-07T00:37:23.302Z,8.200
2023-01-07T00:38:19.697Z,7.150
2023-01-07T00:39:32.714Z,6.300
2023-01-07T00:40:25.512Z,7.450
2023-01-07T00:41:21.260Z,7.200
2023-01-07T00:42:31.852Z,7.900
2023-01-07T00:43:26.626Z,6.500
2023-01-07T00:44:26.323Z,7.850
2023-01-07T00:45:19.610Z,7.700
2023-01-07T00:46:32.035Z,6.550
2023-01-07T00:47:22.330Z,7.750
2023-01-07T00:48:22.456Z,6.500
2023-01-07T00:49:34.100Z,6.650
2023-01-07T00:50:31.724Z,7.600
2023-01-07T00:51:21.066Z,8.100
2023-01-07T00:52:20.281Z,7.100
2023-01-07T00:53:29.891Z,6.200
2023-01-07T00:54:21.153Z,6.800
2023-01-07T00:55:22.017Z,6.800
2023-01-07T00:56:32.437Z,6.950
2023-01-07T00:57:30.034Z,6.700
2023-01-07T00:58:20.237Z,7.250
2023-01-07T00:59:19.620Z,10.300
2023-01-07T01:00:21.334Z,6.750
2023-01-07T01:01:30.491Z,6.250
2023-01-07T01:02:22.252Z,6.100
2023-01-07T01:03:33.058Z,7.500
2023-01-07T01:04:27.835Z,5.900
2023-01-07T01:05:23.873Z,7.300
2023-01-07T01:06:26.594Z,6.250
2023-01-07T01:07:23.477Z,6.100
2023-01-07T01:08:25.866Z,7.550
2023-01-07T01:09:22.575Z,8.700
2023-01-07T01:10:32.806Z,6.550
2023-01-07T01:11:23.051Z,8.000
2023-01-07T01:12:27.709Z,7.450
2023-01-07T01:13:20.055Z,6.900
2023-01-07T01:14:29.973Z,6.850
2023-01-07T01:15:20.686Z,6.700
2023-01-07T01:16:22.071Z,8.050
2023-01-07T01:17:29.458Z,6.700
2023-01-07T01:18:28.252Z,7.150
2023-01-07T01:19:25.316Z,6.900
2023-01-07T01:20:19.926Z,6.500
2023-01-07T01:21:23.432Z,7.750
2023-01-07T01:22:21.466Z,6.900
2023-01-07T01:23:26.140Z,7.800
2023-01-07T01:24:31.587Z,8.500
2023-01-07T01:25:28.752Z,8.700
2023-01-07T01:26:24.117Z,8.750
2023-01-07T01:27:20.580Z,8.100
2023-01-07T01:28:29.661Z,9.300
2023-01-07T01:29:20.641Z,9.000
2023-01-07T01:30:22.365Z,9.900
2023-01-07T01:31:33.952Z,10.750
2023-01-07T01:32:27.695Z,10.050
2023-01-07T01:33:25.628Z,9.900
2023-01-07T01:34:22.532Z,10.750
2023-01-07T01:35:31.770Z,11.150
2023-01-07T01:36:25.715Z,11.500
2023-01-07T01:37:23.332Z,9.400
2023-01-07T01:38:31.904Z,10.050
2023-01-07T01:39:22.914Z,9.600
2023-01-07T01:40:23.919Z,9.400
2023-01-07T01:41:19.681Z,10.300
2023-01-07T01:42:29.966Z,10.500
2023-01-07T01:43:26.037Z,9.900
2023-01-07T01:44:22.737Z,11.700
2023-01-07T01:45:24.621Z,10.600
2023-01-07T01:46:28.053Z,8.650
2023-01-07T01:47:24.912Z,6.900
2023-01-07T01:48:19.814Z,9.500
2023-01-07T01:49:30.115Z,9.250
2023-01-07T01:50:25.984Z,8.900
2023-01-07T01:51:23.663Z,11.650
2023-01-07T01:52:23.465Z,10.500
2023-01-07T01:53:21.635Z,11.400
2023-01-07T01:54:24.144Z,9.950
2023-01-07T01:55:19.691Z,9.700
2023-01-07T01:56:24.064Z,9.250
2023-01-07T01:57:27.271Z,10.250
2023-01-07T01:58:22.158Z,11.600
2023-01-07T01:59:23.388Z,9.400
2023-01-07T02:00:25.712Z,8.650
2023-01-07T02:01:27.392Z,7.900
2023-01-07T02:08:21.736Z,10.600
2023-01-07T02:12:27.650Z,10.350
2023-01-07T02:13:27.857Z,7.800
2023-01-07T02:14:19.729Z,10.900
2023-01-07T02:15:24.599Z,11.400
2023-01-07T02:16:20.170Z,11.350
2023-01-07T02:17:31.403Z,12.650
2023-01-07T02:18:26.005Z,12.700
2023-01-07T02:19:23.971Z,14.100
2023-01-07T02:20:32.346Z,12.700
2023-01-07T02:21:22.713Z,14.800
2023-01-07T02:22:24.377Z,12.600
2023-01-07T02:23:21.684Z,9.600
2023-01-07T02:24:22.998Z,13.850
2023-01-07T02:25:25.889Z,14.300
2023-01-07T02:26:22.018Z,13.400
2023-01-07T02:27:33.893Z,15.050
2023-01-07T02:28:27.838Z,12.750
2023-01-07T02:29:26.492Z,13.100
2023-01-07T02:30:20.191Z,12.100
2023-01-07T02:31:29.849Z,13.000
2023-01-07T02:32:20.671Z,14.900
2023-01-07T02:33:23.577Z,14.200
2023-01-07T02:34:33.097Z,12.400
2023-01-07T02:35:20.494Z,10.400
2023-01-07T02:36:24.123Z,10.850
2023-01-07T02:37:19.942Z,9.900
2023-01-07T02:38:24.923Z,10.600
2023-01-07T02:39:26.302Z,10.300
2023-01-07T02:40:21.909Z,8.500
2023-01-07T02:41:26.599Z,10.250
2023-01-07T02:42:29.657Z,9.750
2023-01-07T02:43:23.822Z,10.400
2023-01-07T02:44:21.394Z,9.250
2023-01-07T02:45:21.039Z,9.450
2023-01-07T02:46:20.220Z,9.350
2023-01-07T02:47:21.842Z,7.700
2023-01-07T02:48:33.294Z,9.250
2023-01-07T02:49:27.625Z,9.300
2023-01-07T02:50:25.149Z,7.650
2023-01-07T02:51:19.830Z,9.300
2023-01-07T02:52:22.911Z,8.700
2023-01-07T02:53:25.904Z,8.100
2023-01-07T02:54:22.111Z,7.700
2023-01-07T02:55:34.359Z,7.450
2023-01-07T02:56:28.764Z,7.700
2023-01-07T02:57:24.453Z,6.800
2023-01-07T02:58:21.529Z,7.200
2023-01-07T02:59:31.603Z,7.000
2023-01-07T03:00:23.041Z,6.700
2023-01-07T03:01:21.903Z,7.850
2023-01-07T03:02:31.943Z,7.800
2023-01-07T03:03:28.102Z,9.800
2023-01-07T03:04:24.355Z,8.500
2023-01-07T03:05:19.452Z,9.400
2023-01-07T03:06:30.043Z,9.800
2023-01-07T03:07:29.025Z,7.300
2023-01-07T03:08:24.914Z,9.100
2023-01-07T03:09:25.891Z,9.000
2023-01-07T03:10:29.827Z,7.800
2023-01-07T03:11:24.113Z,8.450
2023-01-07T03:12:19.712Z,7.200
2023-01-07T03:13:29.901Z,7.600
2023-01-07T03:14:26.062Z,7.700
2023-01-07T03:15:28.821Z,9.500
2023-01-07T03:16:22.000Z,8.200
2023-01-07T03:17:28.591Z,7.500
2023-01-07T03:18:25.253Z,8.350
2023-01-07T03:19:20.683Z,8.250
2023-01-07T03:20:20.922Z,9.100
2023-01-07T03:21:27.180Z,7.550
2023-01-07T03:22:22.315Z,7.800
2023-01-07T03:23:25.226Z,7.750
2023-01-07T03:24:28.123Z,8.550
2023-01-07T03:25:24.571Z,7.300
2023-01-07T03:26:20.783Z,8.350
2023-01-07T03:27:32.455Z,7.550
2023-01-07T03:28:26.069Z,8.400
2023-01-07T03:29:23.611Z,7.950
2023-01-07T03:30:26.632Z,7.350
2023-01-07T03:31:23.933Z,7.500
2023-01-07T03:32:25.463Z,8.350
2023-01-07T03:33:20.121Z,8.550
2023-01-07T03:34:29.855Z,8.500
2023-01-07T03:35:27.311Z,8.200
2023-01-07T03:36:22.131Z,8.000
2023-01-07T03:37:22.754Z,8.950
2023-01-07T03:38:23.088Z,8.400
2023-01-07T03:39:20.491Z,9.300
2023-01-07T03:40:20.038Z,8.800
2023-01-07T03:41:31.018Z,6.500
2023-01-07T03:42:26.399Z,8.000
2023-01-07T03:43:23.904Z,8.600
2023-01-07T03:44:24.466Z,7.000
2023-01-07T03:45:31.696Z,7.800
2023-01-07T03:46:23.858Z,8.250
2023-01-07T03:47:22.162Z,7.600
2023-01-07T03:48:22.005Z,7.200
2023-01-07T03:49:25.852Z,7.950
2023-01-07T03:50:23.600Z,7.200
2023-01-07T03:51:28.081Z,8.100
2023-01-07T03:52:28.298Z,7.900
2023-01-07T03:53:29.274Z,7.700
2023-01-07T03:54:20.963Z,7.200
2023-01-07T03:55:22.382Z,7.800
2023-01-07T03:56:25.751Z,8.250
2023-01-07T03:57:23.000Z,6.900
2023-01-07T03:58:34.130Z,7.600
2023-01-07T03:59:28.180Z,8.000
2023-01-07T04:00:23.455Z,6.750
2023-01-07T04:01:24.779Z,8.000
2023-01-07T04:02:25.516Z,7.800
2023-01-07T04:03:26.918Z,8.550
2023-01-07T04:04:24.222Z,8.000
2023-01-07T04:05:22.025Z,6.250
2023-01-07T04:06:20.339Z,7.600
2023-01-07T04:07:24.356Z,7.250
2023-01-07T04:08:21.598Z,7.200
2023-01-07T04:09:21.660Z,7.750
2023-01-07T04:10:26.189Z,6.400
2023-01-07T04:11:22.267Z,7.500
2023-01-07T04:12:33.748Z,7.800
2023-01-07T04:13:23.388Z,7.300
2023-01-07T04:14:26.304Z,7.300
2023-01-07T04:15:20.468Z,7.450
2023-01-07T04:16:25.882Z,7.200
2023-01-07T04:17:26.652Z,7.000
2023-01-07T04:18:22.159Z,7.700
2023-01-07T04:19:31.888Z,7.200
2023-01-07T04:20:28.708Z,8.150
2023-01-07T04:21:24.440Z,7.300
2023-01-07T04:22:21.842Z,6.300
2023-01-07T04:23:29.880Z,6.950
2023-01-07T04:24:22.856Z,5.500
2023-01-07T04:25:23.603Z,6.500
2023-01-07T04:26:34.118Z,6.950
2023-01-07T04:27:29.495Z,7.350
2023-01-07T04:28:24.025Z,8.100
2023-01-07T04:29:22.011Z,7.150
2023-01-07T04:30:35.274Z,6.500
2023-01-07T04:31:26.713Z,7.500
2023-01-07T04:32:22.123Z,6.450
2023-01-07T04:33:20.836Z,7.500
2023-01-07T04:34:29.939Z,6.850
2023-01-07T04:35:19.191Z,6.300
2023-01-07T04:36:21.829Z,7.700
2023-01-07T04:37:31.793Z,8.600
2023-01-07T04:38:30.667Z,6.400
2023-01-07T04:39:27.530Z,7.000
2023-01-07T04:40:32.514Z,7.900
2023-01-07T04:41:27.917Z,8.800
2023-01-07T04:42:25.454Z,6.900
2023-01-07T04:43:20.055Z,7.700
2023-01-07T04:44:29.789Z,6.800
2023-01-07T04:45:25.866Z,6.900
2023-01-07T04:46:22.835Z,6.700
2023-01-07T04:47:22.785Z,7.950
2023-01-07T04:48:29.629Z,7.850
2023-01-07T04:49:25.502Z,8.500
2023-01-07T04:50:22.655Z,6.950
2023-01-07T04:51:31.958Z,7.000
2023-01-07T04:52:25.964Z,8.600
2023-01-07T04:53:23.630Z,7.700
2023-01-07T04:54:24.854Z,6.700
2023-01-07T04:55:29.116Z,8.200
2023-01-07T04:56:23.899Z,7.400
2023-01-07T04:57:19.985Z,7.500
2023-01-07T04:58:30.244Z,6.700
2023-01-07T04:59:27.373Z,7.250
2023-01-07T05:00:24.175Z,7.400
2023-01-07T05:01:19.839Z,6.600
2023-01-07T05:02:21.564Z,7.450
2023-01-07T05:03:24.448Z,7.500
2023-01-07T05:04:21.217Z,6.750
2023-01-07T05:05:30.128Z,7.500
2023-01-07T05:06:27.984Z,6.900
2023-01-07T05:07:21.808Z,7.300
2023-01-07T05:08:33.800Z,7.100
2023-01-07T05:09:28.852Z,7.800
2023-01-07T05:10:24.291Z,6.900
2023-01-07T05:11:21.629Z,7.850
2023-01-07T05:12:30.132Z,7.000
2023-01-07T05:13:27.600Z,6.700
2023-01-07T05:14:22.354Z,6.700
2023-01-07T05:15:32.115Z,7.000
2023-01-07T05:16:31.495Z,7.700
2023-01-07T05:17:24.215Z,6.500
2023-01-07T05:18:26.352Z,6.700
2023-01-07T05:19:30.681Z,7.250
2023-01-07T05:20:26.803Z,6.900
2023-01-07T05:21:24.602Z,6.950
2023-01-07T05:22:19.118Z,7.300
2023-01-07T05:23:28.253Z,6.800
2023-01-07T05:24:28.968Z,6.800
2023-01-07T05:25:34.005Z,6.300
2023-01-07T05:26:30.082Z,7.350
2023-01-07T05:27:28.379Z,7.200
2023-01-07T05:28:22.156Z,6.250
2023-01-07T05:29:24.776Z,6.600
2023-01-07T05:30:28.614Z,6.450
2023-01-07T05:31:24.471Z,6.400
2023-01-07T05:32:21.433Z,6.950
2023-01-07T05:33:31.427Z,6.350
2023-01-07T05:34:25.998Z,6.500
2023-01-07T05:35:25.378Z,6.300
2023-01-07T05:36:25.725Z,7.550
2023-01-07T05:37:28.170Z,7.300
2023-01-07T05:38:25.199Z,9.350
2023-01-07T05:39:20.225Z,7.050
2023-01-07T05:40:21.482Z,7.600
2023-01-07T05:41:30.043Z,8.200
2023-01-07T05:42:22.100Z,6.800
2023-01-07T05:43:28.670Z,7.600
2023-01-07T05:44:29.969Z,6.450
2023-01-07T05:45:24.509Z,7.700
2023-01-07T05:46:22.000Z,8.400
2023-01-07T05:47:25.568Z,7.000
2023-01-07T05:48:26.116Z,8.500
2023-01-07T05:49:23.905Z,7.650
2023-01-07T05:50:33.701Z,8.150
2023-01-07T05:51:27.946Z,6.600
2023-01-07T05:52:28.205Z,7.000
2023-01-07T05:53:20.605Z,7.600
2023-01-07T05:54:28.224Z,6.900
2023-01-07T05:55:27.388Z,7.100
2023-01-07T05:56:22.351Z,7.350
2023-01-07T05:57:34.847Z,7.100
2023-01-07T05:58:22.842Z,7.300
2023-01-07T05:59:24.027Z,7.350
2023-01-07T06:00:21.131Z,7.900
2023-01-07T06:01:36.286Z,7.800
2023-01-07T06:02:27.342Z,7.000
2023-01-07T06:03:22.758Z,7.350
2023-01-07T06:04:32.271Z,7.800
2023-01-07T06:05:25.960Z,6.600
2023-01-07T06:06:24.336Z,6.800
2023-01-07T06:07:21.712Z,6.500
2023-01-07T06:08:34.626Z,7.350
2023-01-07T06:09:19.642Z,6.500
2023-01-07T06:10:25.595Z,6.850
2023-01-07T06:11:32.191Z,6.850
2023-01-07T06:12:28.660Z,6.900
2023-01-07T06:13:24.312Z,7.200
2023-01-07T06:14:20.342Z,8.250
2023-01-07T06:15:36.157Z,6.500
2023-01-07T06:16:22.637Z,6.900
2023-01-07T06:17:22.326Z,7.800
2023-01-07T06:18:23.527Z,7.200
2023-01-07T06:19:30.923Z,7.900
2023-01-07T06:20:24.775Z,6.650
2023-01-07T06:21:22.044Z,7.500
2023-01-07T06:22:31.959Z,6.450
2023-01-07T06:23:26.906Z,5.900
2023-01-07T06:24:22.234Z,6.800
2023-01-07T06:25:26.276Z,7.500
2023-01-07T06:26:30.805Z,7.400
2023-01-07T06:27:21.810Z,7.000
2023-01-07T06:28:21.748Z,6.850
2023-01-07T06:29:31.530Z,6.250
2023-01-07T06:30:28.787Z,6.700
2023-01-07T06:31:22.467Z,6.650
2023-01-07T06:32:28.390Z,5.850
2023-01-07T06:33:23.371Z,6.900
2023-01-07T06:34:24.179Z,6.600
2023-01-07T06:35:21.164Z,7.350
2023-01-07T06:36:29.996Z,5.600
2023-01-07T06:37:28.867Z,5.550
2023-01-07T06:38:22.850Z,6.300
2023-01-07T06:39:34.555Z,6.900
2023-01-07T06:40:25.012Z,6.600
2023-01-07T06:41:26.932Z,7.200
2023-01-07T06:42:20.175Z,6.200
2023-01-07T06:43:31.514Z,7.100
2023-01-07T06:44:26.154Z,6.250
2023-01-07T06:45:22.192Z,6.100
2023-01-07T06:46:32.507Z,5.450
2023-01-07T06:47:29.651Z,6.400
2023-01-07T06:48:25.222Z,5.400
2023-01-07T06:49:20.490Z,5.800
2023-01-07T06:50:29.907Z,5.100
2023-01-07T06:51:28.178Z,6.250
2023-01-07T06:52:24.691Z,5.750
2023-01-07T06:53:32.506Z,7.000
2023-01-07T06:54:30.404Z,5.950
2023-01-07T06:55:25.645Z,4.700
2023-01-07T06:56:23.252Z,7.450
2023-01-07T06:57:32.232Z,7.150
2023-01-07T06:58:26.677Z,7.050
2023-01-07T06:59:23.113Z,5.800
2023-01-07T07:00:36.215Z,5.800
2023-01-07T07:01:28.447Z,6.700
2023-01-07T07:02:25.170Z,6.200
2023-01-07T07:03:22.204Z,6.300
2023-01-07T07:04:19.921Z,6.200
2023-01-07T07:05:27.813Z,6.700
2023-01-07T07:06:22.114Z,5.900
2023-01-07T07:07:32.217Z,5.900
2023-01-07T07:08:29.621Z,6.050
2023-01-07T07:09:23.950Z,7.250
2023-01-07T07:10:21.631Z,7.200
2023-01-07T07:11:20.083Z,5.350
2023-01-07T07:12:26.458Z,5.700
2023-01-07T07:13:21.980Z,6.500
2023-01-07T07:14:20.613Z,6.400
2023-01-07T07:15:28.473Z,5.900
2023-01-07T07:16:26.389Z,6.250
2023-01-07T07:17:19.952Z,7.000
2023-01-07T07:18:25.264Z,6.200
2023-01-07T07:19:21.143Z,6.400
2023-01-07T07:20:22.393Z,4.900
2023-01-07T07:21:24.981Z,5.600
2023-01-07T07:22:29.965Z,5.600
2023-01-07T07:23:24.341Z,7.800
2023-01-07T07:24:22.021Z,6.200
2023-01-07T07:25:33.833Z,5.100
2023-01-07T07:26:20.613Z,5.600
2023-01-07T07:27:22.596Z,6.100
2023-01-07T07:28:28.772Z,5.900
2023-01-07T07:29:28.300Z,5.500
2023-01-07T07:30:45.608Z,6.700
2023-01-07T07:31:20.477Z,6.350
2023-01-07T07:32:21.739Z,5.600
2023-01-07T07:33:27.634Z,6.250
2023-01-07T07:34:22.841Z,5.700
2023-01-07T07:35:31.995Z,5.600
2023-01-07T07:36:29.912Z,6.150
2023-01-07T07:37:24.185Z,4.600
2023-01-07T07:38:21.564Z,4.800
2023-01-07T07:39:26.145Z,5.400
2023-01-07T07:40:30.077Z,5.000
2023-01-07T07:41:23.909Z,4.500
2023-01-07T07:42:21.608Z,4.750
2023-01-07T07:43:19.325Z,4.800
2023-01-07T07:44:25.973Z,3.800
2023-01-07T07:45:20.213Z,4.950
2023-01-07T07:46:30.146Z,6.500
2023-01-07T07:47:26.220Z,4.300
2023-01-07T07:48:22.851Z,3.900
2023-01-07T07:49:24.053Z,4.200
2023-01-07T07:50:23.378Z,4.100
2023-01-07T07:51:24.191Z,4.050
2023-01-07T07:52:21.636Z,4.800
2023-01-07T07:53:32.352Z,4.350
2023-01-07T07:54:26.065Z,6.200
2023-01-07T07:55:26.374Z,3.650
2023-01-07T07:56:24.299Z,4.450
2023-01-07T07:57:21.795Z,3.700
2023-01-07T07:58:24.776Z,4.700
2023-01-07T07:59:20.761Z,4.900
2023-01-07T08:00:30.444Z,5.000
2023-01-07T08:01:28.868Z,4.550
2023-01-07T08:02:22.251Z,4.200
2023-01-07T08:03:26.774Z,5.200
2023-01-07T08:04:20.924Z,4.600
2023-01-07T08:05:23.993Z,4.500
2023-01-07T08:06:20.198Z,4.600
2023-01-07T08:07:32.416Z,4.350
2023-01-07T08:08:26.465Z,4.600
2023-01-07T08:09:23.665Z,3.750
2023-01-07T08:10:34.819Z,4.500
2023-01-07T08:11:24.403Z,4.800
2023-01-07T08:12:26.571Z,4.600
2023-01-07T08:13:20.056Z,3.700
2023-01-07T08:14:31.549Z,5.450
2023-01-07T08:15:26.794Z,5.450
2023-01-07T08:16:22.201Z,4.500
2023-01-07T08:17:36.293Z,4.450
2023-01-07T08:18:28.294Z,3.700
2023-01-07T08:19:24.480Z,5.400
2023-01-07T08:20:20.570Z,4.500
2023-01-07T08:21:32.894Z,4.750
2023-01-07T08:22:26.813Z,5.650
2023-01-07T08:23:22.508Z,4.300
2023-01-07T08:24:33.917Z,4.500
2023-01-07T08:25:28.308Z,5.700
2023-01-07T08:26:31.667Z,4.600
2023-01-07T08:27:20.615Z,4.300
2023-01-07T08:28:32.413Z,5.550
2023-01-07T08:29:23.298Z,5.200
2023-01-07T08:30:24.554Z,5.300
2023-01-07T08:31:33.770Z,6.000
2023-01-07T08:32:28.269Z,6.500
2023-01-07T08:33:24.310Z,5.850
2023-01-07T08:34:23.794Z,6.700
2023-01-07T08:35:21.899Z,6.300
2023-01-07T08:36:26.377Z,7.200
2023-01-07T08:37:22.877Z,6.300
2023-01-07T08:38:33.467Z,6.150
2023-01-07T08:39:28.169Z,6.400
2023-01-07T08:40:21.284Z,6.200
2023-01-07T08:41:20.987Z,5.150
2023-01-07T08:42:26.331Z,5.750
2023-01-07T08:43:26.232Z,5.500
2023-01-07T08:44:22.324Z,5.250
2023-01-07T08:45:33.009Z,6.400
2023-01-07T08:46:24.608Z,6.200
2023-01-07T08:47:24.300Z,5.700
2023-01-07T08:48:20.907Z,6.300
2023-01-07T08:49:23.243Z,4.950
2023-01-07T08:50:27.865Z,5.550
2023-01-07T08:51:22.627Z,5.500
2023-01-07T08:52:30.868Z,6.100
2023-01-07T08:53:28.020Z,6.750
2023-01-07T08:54:25.757Z,5.900
2023-01-07T08:55:20.472Z,6.200
2023-01-07T08:56:26.268Z,5.300
2023-01-07T08:57:22.574Z,5.900
2023-01-07T08:58:22.148Z,5.650
2023-01-07T08:59:32.692Z,5.500
2023-01-07T09:00:29.492Z,6.250
2023-01-07T09:01:26.914Z,6.500
2023-01-07T09:02:20.585Z,6.500
2023-01-07T09:03:27.275Z,5.600
2023-01-07T09:04:26.106Z,6.850
2023-01-07T09:05:22.192Z,8.100
2023-01-07T09:06:21.995Z,6.700
2023-01-07T09:07:28.506Z,7.550
2023-01-07T09:08:24.082Z,7.500
2023-01-07T09:09:22.247Z,8.750
2023-01-07T09:10:32.112Z,7.450
2023-01-07T09:11:27.121Z,6.650
2023-01-07T09:12:24.514Z,7.900
2023-01-07T09:13:25.081Z,7.150
2023-01-07T09:14:25.651Z,5.800
2023-01-07T09:15:24.724Z,6.300
2023-01-07T09:16:22.069Z,6.900
2023-01-07T09:17:19.914Z,8.100
2023-01-07T09:18:26.556Z,6.050
2023-01-07T09:19:24.632Z,6.400
2023-01-07T09:20:29.678Z,5.900
2023-01-07T09:21:19.461Z,6.100
2023-01-07T09:22:24.505Z,6.100
2023-01-07T09:23:22.216Z,7.950
2023-01-07T09:24:22.421Z,6.200
2023-01-07T09:25:20.194Z,6.000
2023-01-07T09:26:25.240Z,5.750
2023-01-07T09:27:21.803Z,5.700
2023-01-07T09:28:24.265Z,6.300
2023-01-07T09:29:25.070Z,6.800
2023-01-07T09:30:20.527Z,6.400
2023-01-07T09:31:25.687Z,6.500
2023-01-07T09:32:28.276Z,5.700
2023-01-07T09:33:22.478Z,6.050
2023-01-07T09:34:25.342Z,5.800
2023-01-07T09:35:20.360Z,5.300
2023-01-07T09:36:21.224Z,6.350
2023-01-07T09:37:20.501Z,6.600
2023-01-07T09:38:31.751Z,5.700
2023-01-07T09:39:26.391Z,5.950
2023-01-07T09:40:24.026Z,5.700
2023-01-07T09:41:32.191Z,5.950
2023-01-07T09:42:23.466Z,5.200
2023-01-07T09:43:25.367Z,6.300
2023-01-07T09:44:20.582Z,4.800
2023-01-07T09:45:31.737Z,6.400
2023-01-07T09:46:28.452Z,5.300
2023-01-07T09:47:22.905Z,5.900
2023-01-07T09:48:27.376Z,6.800
2023-01-07T09:49:28.300Z,4.850
2023-01-07T09:50:25.250Z,5.200
2023-01-07T09:51:22.467Z,5.500
2023-01-07T09:52:32.457Z,5.400
2023-01-07T09:53:21.480Z,5.500
2023-01-07T09:54:23.650Z,4.300
2023-01-07T09:55:34.253Z,5.300
2023-01-07T09:56:32.590Z,4.200
2023-01-07T09:57:24.225Z,4.800
2023-01-07T09:58:20.330Z,4.950
2023-01-07T09:59:20.160Z,4.400
2023-01-07T10:00:26.354Z,4.700
2023-01-07T10:01:22.672Z,4.200
2023-01-07T10:02:32.533Z,4.300
2023-01-07T10:03:28.089Z,3.500
2023-01-07T10:04:19.629Z,4.400
2023-01-07T10:05:33.256Z,4.300
2023-01-07T10:06:41.977Z,3.400
2023-01-07T10:07:27.703Z,4.150
2023-01-07T10:08:39.006Z,4.000
2023-01-07T10:09:34.722Z,4.100
2023-01-07T10:10:21.743Z,3.700
2023-01-07T10:11:25.154Z,4.650
2023-01-07T10:12:20.226Z,3.900
2023-01-07T10:13:32.127Z,4.350
2023-01-07T10:14:21.267Z,4.450
2023-01-07T10:15:22.127Z,3.950
2023-01-07T10:16:26.462Z,3.700
2023-01-07T10:17:29.949Z,4.150
2023-01-07T10:18:25.680Z,4.900
2023-01-07T10:19:30.231Z,4.250
2023-01-07T10:20:21.624Z,4.400
2023-01-07T10:21:26.502Z,4.800
2023-01-07T10:22:22.336Z,4.600
2023-01-07T10:23:33.453Z,3.950
2023-01-07T10:24:29.808Z,4.200
2023-01-07T10:25:24.586Z,4.300
2023-01-07T10:26:20.176Z,4.200
2023-01-07T10:27:25.627Z,3.300
2023-01-07T10:28:27.780Z,3.450
2023-01-07T10:29:23.993Z,4.500
2023-01-07T10:30:33.704Z,5.050
2023-01-07T10:31:28.467Z,4.250
2023-01-07T10:32:24.540Z,3.100
2023-01-07T10:33:20.058Z,3.050
2023-01-07T10:34:30.444Z,4.150
2023-01-07T10:35:24.687Z,3.700
2023-01-07T10:36:22.265Z,3.700
2023-01-07T10:37:20.345Z,3.700
2023-01-07T10:38:21.346Z,3.950
2023-01-07T10:39:36.607Z,3.600
2023-01-07T10:40:21.713Z,4.000
2023-01-07T10:41:30.320Z,3.450
2023-01-07T10:42:26.299Z,4.300
2023-01-07T10:43:23.810Z,4.100
2023-01-07T10:44:27.030Z,4.200
2023-01-07T10:45:29.111Z,3.600
2023-01-07T10:46:38.544Z,3.800
2023-01-07T10:47:20.436Z,4.550
2023-01-07T10:48:45.371Z,3.200
2023-01-07T10:49:26.314Z,3.300
2023-01-07T10:50:23.567Z,4.000
2023-01-07T10:51:20.511Z,3.900
2023-01-07T10:52:22.087Z,3.800
2023-01-07T10:53:42.359Z,3.800
2023-01-07T10:54:22.938Z,5.600
2023-01-07T10:55:22.335Z,4.600
2023-01-07T10:56:27.958Z,3.800
2023-01-07T10:57:23.209Z,4.500
2023-01-07T10:58:24.287Z,4.100
2023-01-07T10:59:26.114Z,4.450
2023-01-07T11:00:43.730Z,3.500
2023-01-07T11:01:27.407Z,4.850
2023-01-07T11:02:30.869Z,4.050
2023-01-07T11:03:27.904Z,3.600
2023-01-07T11:04:31.174Z,3.900
2023-01-07T11:05:27.170Z,3.550
2023-01-07T11:06:30.189Z,3.800
2023-01-07T11:07:33.185Z,4.050
2023-01-07T11:08:34.043Z,3.750
2023-01-07T11:09:20.679Z,3.900
2023-01-07T11:10:26.221Z,3.700
2023-01-07T11:11:40.768Z,3.500
2023-01-07T11:12:25.297Z,4.750
2023-01-07T11:13:21.376Z,4.500
2023-01-07T11:14:28.560Z,3.800
2023-01-07T11:15:22.117Z,4.100
2023-01-07T11:16:23.859Z,4.300
2023-01-07T11:17:26.185Z,3.600
2023-01-07T11:18:30.101Z,4.650
2023-01-07T11:19:33.934Z,4.400
2023-01-07T11:20:26.019Z,3.900
2023-01-07T11:21:43.751Z,3.700
2023-01-07T11:22:24.915Z,3.600
2023-01-07T11:23:22.487Z,6.000
2023-01-07T11:24:34.694Z,4.500
2023-01-07T11:25:22.469Z,5.250
2023-01-07T11:26:38.906Z,3.900
2023-01-07T11:27:22.983Z,5.200
2023-01-07T11:28:24.688Z,5.050
2023-01-07T11:29:20.911Z,6.500
2023-01-07T11:30:22.446Z,4.400
2023-01-07T11:31:56.108Z,3.950
2023-01-07T11:32:49.027Z,4.650
2023-01-07T11:34:01.786Z,3.600
2023-01-07T11:34:24.745Z,4.500
2023-01-07T11:35:28.019Z,4.700
2023-01-07T11:36:20.871Z,4.800
2023-01-07T11:37:27.448Z,4.600
2023-01-07T11:38:19.809Z,4.200
2023-01-07T11:39:54.834Z,5.500
2023-01-07T11:40:23.326Z,3.500
2023-01-07T11:41:28.911Z,4.500
2023-01-07T11:42:30.335Z,4.100
2023-01-07T11:43:24.942Z,4.350
2023-01-07T11:44:36.924Z,4.850
2023-01-07T11:45:23.801Z,6.800
2023-01-07T11:46:29.180Z,4.950
2023-01-07T11:47:44.877Z,4.400
2023-01-07T11:48:33.984Z,5.200
2023-01-07T11:49:34.426Z,3.900
2023-01-07T11:50:29.123Z,4.450
2023-01-07T11:51:21.699Z,4.300
2023-01-07T11:52:27.935Z,4.100
2023-01-07T11:53:20.589Z,6.000
2023-01-07T11:54:48.788Z,4.850
2023-01-07T11:55:34.773Z,6.100
2023-01-07T11:56:21.443Z,3.700
2023-01-07T11:57:27.330Z,5.250
2023-01-07T11:58:29.662Z,3.700
2023-01-07T11:59:28.917Z,4.300
2023-01-07T12:00:26.788Z,4.150
2023-01-07T12:01:52.133Z,4.250
2023-01-07T12:02:37.727Z,5.000
2023-01-07T12:03:25.872Z,3.600
2023-01-07T12:04:36.743Z,4.700
2023-01-07T12:05:29.931Z,4.100
2023-01-07T12:06:22.806Z,4.000
2023-01-07T12:07:29.639Z,4.100
2023-01-07T12:08:22.565Z,3.100
2023-01-07T12:09:36.708Z,3.850
2023-01-07T12:10:26.905Z,3.700
2023-01-07T12:11:41.147Z,4.750
2023-01-07T12:12:33.780Z,4.600
2023-01-07T12:13:25.658Z,3.700
2023-01-07T12:14:23.088Z,3.400
2023-01-07T12:15:26.786Z,4.500
2023-01-07T12:16:20.770Z,4.100
2023-01-07T12:17:30.873Z,3.950
2023-01-07T12:18:21.129Z,4.700
2023-01-07T12:19:40.785Z,4.450
2023-01-07T12:20:26.166Z,4.100
2023-01-07T12:21:26.942Z,4.800
2023-01-07T12:22:31.067Z,4.400
2023-01-07T12:23:24.531Z,4.250
2023-01-07T12:24:32.700Z,5.600
2023-01-07T12:25:19.752Z,4.050
2023-01-07T12:26:41.957Z,4.100
2023-01-07T12:27:34.969Z,4.600
2023-01-07T12:28:29.940Z,3.800
2023-01-07T12:29:39.601Z,5.800
2023-01-07T12:30:49.972Z,5.200
2023-01-07T12:31:23.067Z,5.000
2023-01-07T12:32:22.788Z,4.400
2023-01-07T12:33:46.719Z,3.900
2023-01-07T12:34:44.923Z,4.500
2023-01-07T12:35:31.874Z,4.600
2023-01-07T12:36:23.402Z,4.600
2023-01-07T12:37:36.050Z,3.900
2023-01-07T12:38:26.971Z,4.900
2023-01-07T12:39:26.079Z,4.900
2023-01-07T12:40:50.097Z,6.600
2023-01-07T12:41:43.486Z,5.600
2023-01-07T12:42:27.005Z,4.600
2023-01-07T12:43:22.090Z,4.500
2023-01-07T12:44:20.733Z,5.100
2023-01-07T12:45:31.770Z,4.750
2023-01-07T12:46:24.139Z,4.050
2023-01-07T12:47:54.647Z,3.700
2023-01-07T12:48:33.001Z,5.400
2023-01-07T12:49:38.297Z,4.250
2023-01-07T12:50:25.094Z,4.600
2023-01-07T12:51:24.223Z,4.250
2023-01-07T12:52:34.527Z,4.300
2023-01-07T12:53:23.321Z,3.700
2023-01-07T12:54:20.341Z,3.650
2023-01-07T12:55:49.513Z,3.800
2023-01-07T12:56:44.196Z,3.650
2023-01-07T12:57:28.108Z,4.100
2023-01-07T12:58:28.992Z,4.500
2023-01-07T12:59:46.019Z,4.600